sensor_id;sensor_type;location;lat;lon;timestamp;P1;durP1;ratioP1;P2;durP2;ratioP2
37945;SDS011;23769;52.478;13.448;2022-10-18T00:00:50;14.27;;;10.13;;
37945;SDS011;23769;52.478;13.448;2022-10-18T00:03:17;16.10;;;10.38;;
37945;SDS011;23769;52.478;13.448;2022-10-18T00:05:45;14.65;;;10.05;;
37945;SDS011;23769;52.478;13.448;2022-10-18T00:08:13;12.40;;;8.88;;
37945;SDS011;23769;52.478;13.448;2022-10-18T00:10:41;14.48;;;9.95;;
37945;SDS011;23769;52.478;13.448;2022-10-18T00:13:08;12.77;;;9.30;;
37945;SDS011;23769;52.478;13.448;2022-10-18T00:15:35;12.65;;;9.35;;
37945;SDS011;23769;52.478;13.448;2022-10-18T00:18:02;13.75;;;9.88;;
37945;SDS011;23769;52.478;13.448;2022-10-18T00:20:29;14.50;;;9.30;;
37945;SDS011;23769;52.478;13.448;2022-10-18T00:22:56;11.60;;;9.07;;
37945;SDS011;23769;52.478;13.448;2022-10-18T00:25:24;11.88;;;9.00;;
37945;SDS011;23769;52.478;13.448;2022-10-18T00:27:51;13.30;;;8.90;;
37945;SDS011;23769;52.478;13.448;2022-10-18T00:30:18;13.50;;;9.40;;
37945;SDS011;23769;52.478;13.448;2022-10-18T00:32:46;14.00;;;9.25;;
37945;SDS011;23769;52.478;13.448;2022-10-18T00:35:13;13.23;;;8.88;;
37945;SDS011;23769;52.478;13.448;2022-10-18T00:37:40;15.38;;;9.13;;
37945;SDS011;23769;52.478;13.448;2022-10-18T00:40:07;11.90;;;8.10;;
37945;SDS011;23769;52.478;13.448;2022-10-18T00:42:36;10.80;;;8.30;;
37945;SDS011;23769;52.478;13.448;2022-10-18T00:45:17;10.27;;;8.55;;
37945;SDS011;23769;52.478;13.448;2022-10-18T00:47:46;11.32;;;8.27;;
37945;SDS011;23769;52.478;13.448;2022-10-18T00:50:14;12.95;;;8.45;;
37945;SDS011;23769;52.478;13.448;2022-10-18T00:52:42;12.93;;;8.60;;
37945;SDS011;23769;52.478;13.448;2022-10-18T00:55:10;14.43;;;8.13;;
37945;SDS011;23769;52.478;13.448;2022-10-18T00:57:38;12.88;;;8.30;;
37945;SDS011;23769;52.478;13.448;2022-10-18T01:00:07;13.32;;;7.93;;
37945;SDS011;23769;52.478;13.448;2022-10-18T01:02:34;10.32;;;8.20;;
37945;SDS011;23769;52.478;13.448;2022-10-18T01:05:02;14.98;;;8.23;;
37945;SDS011;23769;52.478;13.448;2022-10-18T01:07:32;10.70;;;7.07;;
37945;SDS011;23769;52.478;13.448;2022-10-18T01:10:02;13.18;;;8.60;;
37945;SDS011;23769;52.478;13.448;2022-10-18T01:12:35;9.68;;;8.02;;
37945;SDS011;23769;52.478;13.448;2022-10-18T01:15:07;13.05;;;7.95;;
37945;SDS011;23769;52.478;13.448;2022-10-18T01:17:38;15.55;;;7.30;;
37945;SDS011;23769;52.478;13.448;2022-10-18T01:20:17;17.65;;;11.50;;
37945;SDS011;23769;52.478;13.448;2022-10-18T01:22:47;10.98;;;8.27;;
37945;SDS011;23769;52.478;13.448;2022-10-18T01:25:19;13.60;;;8.68;;
37945;SDS011;23769;52.478;13.448;2022-10-18T01:30:20;14.55;;;9.15;;
37945;SDS011;23769;52.478;13.448;2022-10-18T01:32:51;12.45;;;9.55;;
37945;SDS011;23769;52.478;13.448;2022-10-18T01:35:20;12.32;;;9.52;;
37945;SDS011;23769;52.478;13.448;2022-10-18T01:37:48;11.80;;;9.15;;
37945;SDS011;23769;52.478;13.448;2022-10-18T01:40:16;12.55;;;9.40;;
37945;SDS011;23769;52.478;13.448;2022-10-18T01:42:44;11.13;;;9.13;;
37945;SDS011;23769;52.478;13.448;2022-10-18T01:45:12;17.05;;;10.02;;
37945;SDS011;23769;52.478;13.448;2022-10-18T01:47:41;10.88;;;8.93;;
37945;SDS011;23769;52.478;13.448;2022-10-18T01:50:09;13.20;;;9.90;;
37945;SDS011;23769;52.478;13.448;2022-10-18T01:52:46;15.20;;;9.63;;
37945;SDS011;23769;52.478;13.448;2022-10-18T01:55:13;13.55;;;10.00;;
37945;SDS011;23769;52.478;13.448;2022-10-18T01:57:41;12.15;;;10.20;;
37945;SDS011;23769;52.478;13.448;2022-10-18T02:00:09;12.95;;;9.88;;
37945;SDS011;23769;52.478;13.448;2022-10-18T02:02:43;12.88;;;8.90;;
37945;SDS011;23769;52.478;13.448;2022-10-18T02:05:13;12.68;;;10.27;;
37945;SDS011;23769;52.478;13.448;2022-10-18T02:07:46;10.95;;;9.75;;
37945;SDS011;23769;52.478;13.448;2022-10-18T02:10:15;14.60;;;10.52;;
37945;SDS011;23769;52.478;13.448;2022-10-18T02:12:45;10.85;;;9.38;;
37945;SDS011;23769;52.478;13.448;2022-10-18T02:15:15;14.82;;;10.60;;
37945;SDS011;23769;52.478;13.448;2022-10-18T02:17:44;11.20;;;9.60;;
37945;SDS011;23769;52.478;13.448;2022-10-18T02:20:11;11.90;;;9.52;;
37945;SDS011;23769;52.478;13.448;2022-10-18T02:22:39;11.35;;;9.30;;
37945;SDS011;23769;52.478;13.448;2022-10-18T02:25:08;14.27;;;10.80;;
37945;SDS011;23769;52.478;13.448;2022-10-18T02:27:39;12.10;;;9.85;;
37945;SDS011;23769;52.478;13.448;2022-10-18T02:30:06;14.13;;;10.75;;
37945;SDS011;23769;52.478;13.448;2022-10-18T02:32:36;12.23;;;10.15;;
37945;SDS011;23769;52.478;13.448;2022-10-18T02:35:06;12.65;;;10.23;;
37945;SDS011;23769;52.478;13.448;2022-10-18T02:37:36;16.20;;;10.90;;
37945;SDS011;23769;52.478;13.448;2022-10-18T02:40:04;12.90;;;10.50;;
37945;SDS011;23769;52.478;13.448;2022-10-18T02:42:32;12.25;;;10.40;;
37945;SDS011;23769;52.478;13.448;2022-10-18T02:45:00;13.77;;;11.02;;
37945;SDS011;23769;52.478;13.448;2022-10-18T02:47:28;12.85;;;10.77;;
37945;SDS011;23769;52.478;13.448;2022-10-18T02:49:55;18.27;;;10.70;;
37945;SDS011;23769;52.478;13.448;2022-10-18T02:52:23;13.57;;;10.02;;
37945;SDS011;23769;52.478;13.448;2022-10-18T02:54:51;11.82;;;10.02;;
37945;SDS011;23769;52.478;13.448;2022-10-18T02:57:18;12.15;;;10.20;;
37945;SDS011;23769;52.478;13.448;2022-10-18T02:59:45;12.65;;;9.65;;
37945;SDS011;23769;52.478;13.448;2022-10-18T03:02:12;10.65;;;9.50;;
37945;SDS011;23769;52.478;13.448;2022-10-18T03:04:39;12.18;;;10.20;;
37945;SDS011;23769;52.478;13.448;2022-10-18T03:07:06;11.65;;;8.95;;
37945;SDS011;23769;52.478;13.448;2022-10-18T03:09:34;15.57;;;9.48;;
37945;SDS011;23769;52.478;13.448;2022-10-18T03:12:02;13.85;;;10.02;;
37945;SDS011;23769;52.478;13.448;2022-10-18T03:14:29;13.40;;;9.18;;
37945;SDS011;23769;52.478;13.448;2022-10-18T03:16:56;14.80;;;10.15;;
37945;SDS011;23769;52.478;13.448;2022-10-18T03:19:23;12.23;;;9.65;;
37945;SDS011;23769;52.478;13.448;2022-10-18T03:21:50;16.55;;;11.13;;
37945;SDS011;23769;52.478;13.448;2022-10-18T03:24:17;12.38;;;10.68;;
37945;SDS011;23769;52.478;13.448;2022-10-18T03:26:46;14.75;;;10.18;;
37945;SDS011;23769;52.478;13.448;2022-10-18T03:29:13;14.27;;;10.20;;
37945;SDS011;23769;52.478;13.448;2022-10-18T03:31:40;14.77;;;10.95;;
37945;SDS011;23769;52.478;13.448;2022-10-18T03:34:07;15.13;;;10.68;;
37945;SDS011;23769;52.478;13.448;2022-10-18T03:36:34;15.27;;;11.10;;
37945;SDS011;23769;52.478;13.448;2022-10-18T03:39:02;13.43;;;10.40;;
37945;SDS011;23769;52.478;13.448;2022-10-18T03:41:29;11.27;;;9.98;;
37945;SDS011;23769;52.478;13.448;2022-10-18T03:43:58;13.52;;;11.32;;
37945;SDS011;23769;52.478;13.448;2022-10-18T03:46:25;13.20;;;10.98;;
37945;SDS011;23769;52.478;13.448;2022-10-18T03:48:52;15.10;;;10.68;;
37945;SDS011;23769;52.478;13.448;2022-10-18T03:51:19;17.75;;;11.43;;
37945;SDS011;23769;52.478;13.448;2022-10-18T03:53:46;12.02;;;10.77;;
37945;SDS011;23769;52.478;13.448;2022-10-18T03:56:13;14.07;;;10.55;;
37945;SDS011;23769;52.478;13.448;2022-10-18T03:58:40;13.30;;;11.05;;
37945;SDS011;23769;52.478;13.448;2022-10-18T04:01:08;12.40;;;10.50;;
37945;SDS011;23769;52.478;13.448;2022-10-18T04:03:35;12.68;;;10.13;;
37945;SDS011;23769;52.478;13.448;2022-10-18T04:06:03;15.35;;;10.80;;
37945;SDS011;23769;52.478;13.448;2022-10-18T04:08:31;12.48;;;10.65;;
37945;SDS011;23769;52.478;13.448;2022-10-18T04:10:58;12.90;;;10.82;;
37945;SDS011;23769;52.478;13.448;2022-10-18T04:13:25;11.23;;;10.02;;
37945;SDS011;23769;52.478;13.448;2022-10-18T04:15:53;14.90;;;11.38;;
37945;SDS011;23769;52.478;13.448;2022-10-18T04:18:21;12.38;;;10.90;;
37945;SDS011;23769;52.478;13.448;2022-10-18T04:20:48;14.57;;;11.10;;
37945;SDS011;23769;52.478;13.448;2022-10-18T04:23:15;13.95;;;10.45;;
37945;SDS011;23769;52.478;13.448;2022-10-18T04:25:42;11.38;;;10.02;;
37945;SDS011;23769;52.478;13.448;2022-10-18T04:28:09;11.07;;;9.13;;
37945;SDS011;23769;52.478;13.448;2022-10-18T04:30:36;11.57;;;10.35;;
37945;SDS011;23769;52.478;13.448;2022-10-18T04:33:03;13.52;;;10.05;;
37945;SDS011;23769;52.478;13.448;2022-10-18T04:35:31;22.05;;;16.90;;
37945;SDS011;23769;52.478;13.448;2022-10-18T04:37:59;23.90;;;18.65;;
37945;SDS011;23769;52.478;13.448;2022-10-18T04:40:26;17.98;;;15.07;;
37945;SDS011;23769;52.478;13.448;2022-10-18T04:42:53;12.70;;;10.57;;
37945;SDS011;23769;52.478;13.448;2022-10-18T04:45:20;10.73;;;9.38;;
37945;SDS011;23769;52.478;13.448;2022-10-18T04:47:47;9.95;;;8.93;;
37945;SDS011;23769;52.478;13.448;2022-10-18T04:50:14;11.65;;;9.55;;
37945;SDS011;23769;52.478;13.448;2022-10-18T04:52:42;18.67;;;14.90;;
37945;SDS011;23769;52.478;13.448;2022-10-18T04:55:09;19.05;;;11.95;;
37945;SDS011;23769;52.478;13.448;2022-10-18T04:57:36;15.82;;;11.25;;
37945;SDS011;23769;52.478;13.448;2022-10-18T05:00:04;11.80;;;9.18;;
37945;SDS011;23769;52.478;13.448;2022-10-18T05:02:31;14.02;;;8.82;;
37945;SDS011;23769;52.478;13.448;2022-10-18T05:04:58;10.68;;;8.68;;
37945;SDS011;23769;52.478;13.448;2022-10-18T05:07:25;13.35;;;9.00;;
37945;SDS011;23769;52.478;13.448;2022-10-18T05:09:54;11.00;;;8.80;;
37945;SDS011;23769;52.478;13.448;2022-10-18T05:12:21;13.10;;;9.40;;
37945;SDS011;23769;52.478;13.448;2022-10-18T05:14:48;13.18;;;9.70;;
37945;SDS011;23769;52.478;13.448;2022-10-18T05:17:15;12.02;;;9.57;;
37945;SDS011;23769;52.478;13.448;2022-10-18T05:19:42;11.77;;;10.13;;
37945;SDS011;23769;52.478;13.448;2022-10-18T05:22:09;12.75;;;9.45;;
37945;SDS011;23769;52.478;13.448;2022-10-18T05:24:36;13.30;;;9.60;;
37945;SDS011;23769;52.478;13.448;2022-10-18T05:27:04;12.35;;;8.82;;
37945;SDS011;23769;52.478;13.448;2022-10-18T05:29:31;12.35;;;8.75;;
37945;SDS011;23769;52.478;13.448;2022-10-18T05:31:58;11.93;;;9.27;;
37945;SDS011;23769;52.478;13.448;2022-10-18T05:34:25;11.05;;;9.32;;
37945;SDS011;23769;52.478;13.448;2022-10-18T05:36:55;12.10;;;9.55;;
37945;SDS011;23769;52.478;13.448;2022-10-18T05:39:23;13.77;;;9.77;;
37945;SDS011;23769;52.478;13.448;2022-10-18T05:41:50;12.70;;;8.88;;
37945;SDS011;23769;52.478;13.448;2022-10-18T05:44:18;15.38;;;10.20;;
37945;SDS011;23769;52.478;13.448;2022-10-18T05:46:45;11.55;;;9.13;;
37945;SDS011;23769;52.478;13.448;2022-10-18T05:49:12;19.75;;;10.93;;
37945;SDS011;23769;52.478;13.448;2022-10-18T05:51:39;11.95;;;9.68;;
37945;SDS011;23769;52.478;13.448;2022-10-18T05:54:08;15.63;;;11.13;;
37945;SDS011;23769;52.478;13.448;2022-10-18T05:56:35;15.77;;;10.60;;
37945;SDS011;23769;52.478;13.448;2022-10-18T05:59:02;12.05;;;9.68;;
37945;SDS011;23769;52.478;13.448;2022-10-18T06:01:35;18.08;;;11.55;;
37945;SDS011;23769;52.478;13.448;2022-10-18T06:04:02;15.73;;;10.63;;
37945;SDS011;23769;52.478;13.448;2022-10-18T06:06:29;13.20;;;10.07;;
37945;SDS011;23769;52.478;13.448;2022-10-18T06:08:56;13.38;;;10.00;;
37945;SDS011;23769;52.478;13.448;2022-10-18T06:11:24;17.55;;;12.35;;
37945;SDS011;23769;52.478;13.448;2022-10-18T06:13:51;11.75;;;10.18;;
37945;SDS011;23769;52.478;13.448;2022-10-18T06:16:19;15.57;;;11.45;;
37945;SDS011;23769;52.478;13.448;2022-10-18T06:18:48;12.98;;;11.10;;
37945;SDS011;23769;52.478;13.448;2022-10-18T06:21:15;14.40;;;10.75;;
37945;SDS011;23769;52.478;13.448;2022-10-18T06:23:42;11.68;;;9.40;;
37945;SDS011;23769;52.478;13.448;2022-10-18T06:26:10;13.90;;;9.60;;
37945;SDS011;23769;52.478;13.448;2022-10-18T06:28:37;14.88;;;10.10;;
37945;SDS011;23769;52.478;13.448;2022-10-18T06:31:04;16.08;;;11.07;;
37945;SDS011;23769;52.478;13.448;2022-10-18T06:33:32;13.23;;;10.57;;
37945;SDS011;23769;52.478;13.448;2022-10-18T06:36:01;15.63;;;10.65;;
37945;SDS011;23769;52.478;13.448;2022-10-18T06:38:29;15.18;;;11.23;;
37945;SDS011;23769;52.478;13.448;2022-10-18T06:40:57;14.80;;;10.63;;
37945;SDS011;23769;52.478;13.448;2022-10-18T06:43:24;12.73;;;9.10;;
37945;SDS011;23769;52.478;13.448;2022-10-18T06:45:52;15.77;;;10.48;;
37945;SDS011;23769;52.478;13.448;2022-10-18T06:48:19;14.23;;;11.55;;
37945;SDS011;23769;52.478;13.448;2022-10-18T06:50:50;19.48;;;14.93;;
37945;SDS011;23769;52.478;13.448;2022-10-18T06:53:19;16.45;;;11.30;;
37945;SDS011;23769;52.478;13.448;2022-10-18T06:55:46;20.02;;;11.40;;
37945;SDS011;23769;52.478;13.448;2022-10-18T06:58:13;13.93;;;10.48;;
37945;SDS011;23769;52.478;13.448;2022-10-18T07:00:40;13.40;;;10.85;;
37945;SDS011;23769;52.478;13.448;2022-10-18T07:03:09;20.65;;;14.27;;
37945;SDS011;23769;52.478;13.448;2022-10-18T07:05:36;13.38;;;9.70;;
37945;SDS011;23769;52.478;13.448;2022-10-18T07:08:03;11.82;;;9.60;;
37945;SDS011;23769;52.478;13.448;2022-10-18T07:10:32;15.85;;;9.57;;
37945;SDS011;23769;52.478;13.448;2022-10-18T07:12:59;14.20;;;10.18;;
37945;SDS011;23769;52.478;13.448;2022-10-18T07:15:26;13.45;;;10.80;;
37945;SDS011;23769;52.478;13.448;2022-10-18T07:17:53;15.63;;;9.73;;
37945;SDS011;23769;52.478;13.448;2022-10-18T07:20:20;29.38;;;22.67;;
37945;SDS011;23769;52.478;13.448;2022-10-18T07:22:49;19.92;;;14.00;;
37945;SDS011;23769;52.478;13.448;2022-10-18T07:25:21;17.60;;;11.18;;
37945;SDS011;23769;52.478;13.448;2022-10-18T07:27:50;12.85;;;11.20;;
37945;SDS011;23769;52.478;13.448;2022-10-18T07:30:17;16.35;;;10.95;;
37945;SDS011;23769;52.478;13.448;2022-10-18T07:32:44;17.25;;;11.68;;
37945;SDS011;23769;52.478;13.448;2022-10-18T07:35:11;15.88;;;11.85;;
37945;SDS011;23769;52.478;13.448;2022-10-18T07:37:38;14.65;;;12.48;;
37945;SDS011;23769;52.478;13.448;2022-10-18T07:40:06;18.50;;;14.52;;
37945;SDS011;23769;52.478;13.448;2022-10-18T07:42:35;16.33;;;12.38;;
37945;SDS011;23769;52.478;13.448;2022-10-18T07:45:03;17.52;;;12.63;;
37945;SDS011;23769;52.478;13.448;2022-10-18T07:47:31;18.40;;;11.93;;
37945;SDS011;23769;52.478;13.448;2022-10-18T07:49:58;15.05;;;11.70;;
37945;SDS011;23769;52.478;13.448;2022-10-18T07:52:25;17.70;;;11.25;;
37945;SDS011;23769;52.478;13.448;2022-10-18T07:54:52;18.58;;;10.77;;
37945;SDS011;23769;52.478;13.448;2022-10-18T07:57:19;15.43;;;9.73;;
37945;SDS011;23769;52.478;13.448;2022-10-18T07:59:47;16.95;;;11.77;;
37945;SDS011;23769;52.478;13.448;2022-10-18T08:02:21;18.67;;;10.38;;
37945;SDS011;23769;52.478;13.448;2022-10-18T08:04:48;14.32;;;9.93;;
37945;SDS011;23769;52.478;13.448;2022-10-18T08:07:15;14.65;;;8.88;;
37945;SDS011;23769;52.478;13.448;2022-10-18T08:09:42;11.55;;;9.57;;
37945;SDS011;23769;52.478;13.448;2022-10-18T08:12:09;17.83;;;13.25;;
37945;SDS011;23769;52.478;13.448;2022-10-18T08:14:37;35.92;;;20.45;;
37945;SDS011;23769;52.478;13.448;2022-10-18T08:17:04;25.77;;;14.68;;
37945;SDS011;23769;52.478;13.448;2022-10-18T08:19:32;13.75;;;11.50;;
37945;SDS011;23769;52.478;13.448;2022-10-18T08:21:59;13.88;;;9.57;;
37945;SDS011;23769;52.478;13.448;2022-10-18T08:24:26;10.63;;;7.75;;
37945;SDS011;23769;52.478;13.448;2022-10-18T08:26:53;12.60;;;8.00;;
37945;SDS011;23769;52.478;13.448;2022-10-18T08:29:20;15.45;;;8.52;;
37945;SDS011;23769;52.478;13.448;2022-10-18T08:31:48;11.70;;;7.97;;
37945;SDS011;23769;52.478;13.448;2022-10-18T08:34:15;10.18;;;7.60;;
37945;SDS011;23769;52.478;13.448;2022-10-18T08:36:43;10.95;;;7.00;;
37945;SDS011;23769;52.478;13.448;2022-10-18T08:39:11;10.85;;;6.85;;
37945;SDS011;23769;52.478;13.448;2022-10-18T08:41:44;12.57;;;7.63;;
37945;SDS011;23769;52.478;13.448;2022-10-18T08:44:13;12.70;;;8.73;;
37945;SDS011;23769;52.478;13.448;2022-10-18T08:46:44;10.15;;;7.28;;
37945;SDS011;23769;52.478;13.448;2022-10-18T08:49:20;10.35;;;7.25;;
37945;SDS011;23769;52.478;13.448;2022-10-18T08:51:51;10.57;;;6.85;;
37945;SDS011;23769;52.478;13.448;2022-10-18T08:54:21;9.25;;;6.30;;
37945;SDS011;23769;52.478;13.448;2022-10-18T08:56:55;9.80;;;5.70;;
37945;SDS011;23769;52.478;13.448;2022-10-18T09:01:51;6.25;;;3.50;;
37945;SDS011;23769;52.478;13.448;2022-10-18T09:04:25;5.47;;;3.70;;
37945;SDS011;23769;52.478;13.448;2022-10-18T09:06:57;5.38;;;3.42;;
37945;SDS011;23769;52.478;13.448;2022-10-18T09:09:31;6.70;;;4.10;;
37945;SDS011;23769;52.478;13.448;2022-10-18T09:12:02;12.10;;;5.70;;
37945;SDS011;23769;52.478;13.448;2022-10-18T09:14:36;8.10;;;5.07;;
37945;SDS011;23769;52.478;13.448;2022-10-18T09:17:06;11.55;;;5.45;;
37945;SDS011;23769;52.478;13.448;2022-10-18T09:19:42;18.95;;;12.60;;
37945;SDS011;23769;52.478;13.448;2022-10-18T09:22:13;8.63;;;5.82;;
37945;SDS011;23769;52.478;13.448;2022-10-18T09:24:43;13.35;;;6.10;;
37945;SDS011;23769;52.478;13.448;2022-10-18T09:27:13;13.10;;;7.25;;
37945;SDS011;23769;52.478;13.448;2022-10-18T09:29:47;9.05;;;7.30;;
37945;SDS011;23769;52.478;13.448;2022-10-18T09:32:21;11.93;;;8.07;;
37945;SDS011;23769;52.478;13.448;2022-10-18T09:34:50;11.70;;;7.13;;
37945;SDS011;23769;52.478;13.448;2022-10-18T09:37:20;10.35;;;6.72;;
37945;SDS011;23769;52.478;13.448;2022-10-18T09:39:48;12.02;;;7.80;;
37945;SDS011;23769;52.478;13.448;2022-10-18T09:42:17;17.55;;;8.25;;
37945;SDS011;23769;52.478;13.448;2022-10-18T09:44:52;16.42;;;11.60;;
37945;SDS011;23769;52.478;13.448;2022-10-18T09:47:20;12.50;;;8.18;;
37945;SDS011;23769;52.478;13.448;2022-10-18T09:49:50;15.75;;;9.38;;
37945;SDS011;23769;52.478;13.448;2022-10-18T09:52:18;11.98;;;8.10;;
37945;SDS011;23769;52.478;13.448;2022-10-18T09:54:48;12.32;;;7.45;;
37945;SDS011;23769;52.478;13.448;2022-10-18T09:57:20;11.88;;;7.13;;
37945;SDS011;23769;52.478;13.448;2022-10-18T09:59:49;10.82;;;7.30;;
37945;SDS011;23769;52.478;13.448;2022-10-18T10:02:17;9.38;;;6.47;;
37945;SDS011;23769;52.478;13.448;2022-10-18T10:04:45;11.15;;;8.02;;
37945;SDS011;23769;52.478;13.448;2022-10-18T10:07:13;12.13;;;7.47;;
37945;SDS011;23769;52.478;13.448;2022-10-18T10:09:43;10.38;;;8.25;;
37945;SDS011;23769;52.478;13.448;2022-10-18T10:12:24;10.60;;;8.43;;
37945;SDS011;23769;52.478;13.448;2022-10-18T10:14:52;15.70;;;8.50;;
37945;SDS011;23769;52.478;13.448;2022-10-18T10:17:20;13.05;;;8.90;;
37945;SDS011;23769;52.478;13.448;2022-10-18T10:19:53;14.70;;;9.43;;
37945;SDS011;23769;52.478;13.448;2022-10-18T10:22:24;12.20;;;9.02;;
37945;SDS011;23769;52.478;13.448;2022-10-18T10:24:53;11.05;;;7.95;;
37945;SDS011;23769;52.478;13.448;2022-10-18T10:27:21;10.25;;;7.65;;
37945;SDS011;23769;52.478;13.448;2022-10-18T10:29:58;12.02;;;7.75;;
37945;SDS011;23769;52.478;13.448;2022-10-18T10:32:26;9.95;;;7.95;;
37945;SDS011;23769;52.478;13.448;2022-10-18T10:34:54;12.82;;;8.27;;
37945;SDS011;23769;52.478;13.448;2022-10-18T10:37:25;12.57;;;8.48;;
37945;SDS011;23769;52.478;13.448;2022-10-18T10:40:06;10.55;;;7.80;;
37945;SDS011;23769;52.478;13.448;2022-10-18T10:42:35;12.23;;;8.23;;
37945;SDS011;23769;52.478;13.448;2022-10-18T10:45:11;12.73;;;8.43;;
37945;SDS011;23769;52.478;13.448;2022-10-18T10:47:38;10.50;;;7.45;;
37945;SDS011;23769;52.478;13.448;2022-10-18T10:50:08;11.75;;;8.63;;
37945;SDS011;23769;52.478;13.448;2022-10-18T10:52:36;10.52;;;8.60;;
37945;SDS011;23769;52.478;13.448;2022-10-18T10:55:14;9.90;;;7.57;;
37945;SDS011;23769;52.478;13.448;2022-10-18T10:57:42;11.82;;;8.48;;
37945;SDS011;23769;52.478;13.448;2022-10-18T11:02:53;10.40;;;8.20;;
37945;SDS011;23769;52.478;13.448;2022-10-18T11:05:30;10.73;;;7.85;;
37945;SDS011;23769;52.478;13.448;2022-10-18T11:08:08;11.65;;;7.55;;
37945;SDS011;23769;52.478;13.448;2022-10-18T11:10:38;11.00;;;8.10;;
37945;SDS011;23769;52.478;13.448;2022-10-18T11:13:14;15.33;;;10.97;;
37945;SDS011;23769;52.478;13.448;2022-10-18T11:15:48;16.13;;;10.57;;
37945;SDS011;23769;52.478;13.448;2022-10-18T11:18:19;12.40;;;8.55;;
37945;SDS011;23769;52.478;13.448;2022-10-18T11:20:48;11.75;;;6.78;;
37945;SDS011;23769;52.478;13.448;2022-10-18T11:23:17;12.90;;;6.60;;
37945;SDS011;23769;52.478;13.448;2022-10-18T11:25:55;11.55;;;7.57;;
37945;SDS011;23769;52.478;13.448;2022-10-18T11:28:27;11.05;;;8.35;;
37945;SDS011;23769;52.478;13.448;2022-10-18T11:31:00;15.82;;;9.98;;
37945;SDS011;23769;52.478;13.448;2022-10-18T11:33:35;11.90;;;7.43;;
37945;SDS011;23769;52.478;13.448;2022-10-18T11:36:05;12.80;;;9.65;;
37945;SDS011;23769;52.478;13.448;2022-10-18T11:38:36;11.02;;;8.10;;
37945;SDS011;23769;52.478;13.448;2022-10-18T11:43:53;24.77;;;16.92;;
37945;SDS011;23769;52.478;13.448;2022-10-18T11:46:24;16.15;;;11.18;;
37945;SDS011;23769;52.478;13.448;2022-10-18T11:48:59;10.25;;;8.35;;
37945;SDS011;23769;52.478;13.448;2022-10-18T11:51:29;13.90;;;10.23;;
37945;SDS011;23769;52.478;13.448;2022-10-18T11:54:03;15.40;;;11.50;;
37945;SDS011;23769;52.478;13.448;2022-10-18T11:56:34;12.98;;;9.23;;
37945;SDS011;23769;52.478;13.448;2022-10-18T11:59:08;12.83;;;9.47;;
37945;SDS011;23769;52.478;13.448;2022-10-18T12:01:42;8.60;;;6.90;;
37945;SDS011;23769;52.478;13.448;2022-10-18T12:04:16;9.32;;;7.68;;
37945;SDS011;23769;52.478;13.448;2022-10-18T12:06:44;8.35;;;6.13;;
37945;SDS011;23769;52.478;13.448;2022-10-18T12:09:13;10.27;;;7.82;;
37945;SDS011;23769;52.478;13.448;2022-10-18T12:11:45;10.32;;;6.50;;
37945;SDS011;23769;52.478;13.448;2022-10-18T12:14:16;11.38;;;7.90;;
37945;SDS011;23769;52.478;13.448;2022-10-18T12:16:45;12.95;;;8.63;;
37945;SDS011;23769;52.478;13.448;2022-10-18T12:19:15;8.65;;;5.80;;
37945;SDS011;23769;52.478;13.448;2022-10-18T12:21:45;8.75;;;6.97;;
37945;SDS011;23769;52.478;13.448;2022-10-18T12:24:14;10.57;;;8.10;;
37945;SDS011;23769;52.478;13.448;2022-10-18T12:26:43;9.35;;;7.65;;
37945;SDS011;23769;52.478;13.448;2022-10-18T12:29:16;9.32;;;6.90;;
37945;SDS011;23769;52.478;13.448;2022-10-18T12:31:45;11.70;;;7.88;;
37945;SDS011;23769;52.478;13.448;2022-10-18T12:34:23;9.18;;;6.15;;
37945;SDS011;23769;52.478;13.448;2022-10-18T12:36:58;7.85;;;5.85;;
37945;SDS011;23769;52.478;13.448;2022-10-18T12:39:25;9.32;;;7.50;;
37945;SDS011;23769;52.478;13.448;2022-10-18T12:41:57;10.95;;;8.93;;
37945;SDS011;23769;52.478;13.448;2022-10-18T12:44:25;11.32;;;8.73;;
37945;SDS011;23769;52.478;13.448;2022-10-18T12:46:55;7.80;;;5.55;;
37945;SDS011;23769;52.478;13.448;2022-10-18T12:49:24;8.73;;;7.15;;
37945;SDS011;23769;52.478;13.448;2022-10-18T12:51:53;8.27;;;6.90;;
37945;SDS011;23769;52.478;13.448;2022-10-18T12:54:24;10.93;;;6.80;;
37945;SDS011;23769;52.478;13.448;2022-10-18T12:56:52;8.30;;;6.28;;
37945;SDS011;23769;52.478;13.448;2022-10-18T13:02:07;6.82;;;5.57;;
37945;SDS011;23769;52.478;13.448;2022-10-18T13:04:35;8.00;;;6.07;;
37945;SDS011;23769;52.478;13.448;2022-10-18T13:07:16;9.02;;;7.32;;
37945;SDS011;23769;52.478;13.448;2022-10-18T13:12:48;8.02;;;5.75;;
37945;SDS011;23769;52.478;13.448;2022-10-18T13:15:28;9.32;;;6.45;;
37945;SDS011;23769;52.478;13.448;2022-10-18T13:17:59;8.68;;;7.03;;
37945;SDS011;23769;52.478;13.448;2022-10-18T13:20:30;13.20;;;10.40;;
37945;SDS011;23769;52.478;13.448;2022-10-18T13:23:00;9.60;;;7.10;;
37945;SDS011;23769;52.478;13.448;2022-10-18T13:25:32;12.82;;;10.32;;
37945;SDS011;23769;52.478;13.448;2022-10-18T13:28:05;9.27;;;7.40;;
37945;SDS011;23769;52.478;13.448;2022-10-18T13:30:46;10.20;;;8.40;;
37945;SDS011;23769;52.478;13.448;2022-10-18T13:33:17;11.60;;;8.15;;
37945;SDS011;23769;52.478;13.448;2022-10-18T13:35:50;13.73;;;9.43;;
37945;SDS011;23769;52.478;13.448;2022-10-18T13:38:32;13.07;;;9.52;;
37945;SDS011;23769;52.478;13.448;2022-10-18T13:41:03;14.82;;;12.43;;
37945;SDS011;23769;52.478;13.448;2022-10-18T13:43:50;11.70;;;9.27;;
37945;SDS011;23769;52.478;13.448;2022-10-18T13:46:21;10.52;;;8.10;;
37945;SDS011;23769;52.478;13.448;2022-10-18T13:48:49;9.85;;;7.85;;
37945;SDS011;23769;52.478;13.448;2022-10-18T13:51:22;9.65;;;7.15;;
37945;SDS011;23769;52.478;13.448;2022-10-18T13:53:54;11.38;;;9.18;;
37945;SDS011;23769;52.478;13.448;2022-10-18T13:56:34;8.65;;;6.93;;
37945;SDS011;23769;52.478;13.448;2022-10-18T13:59:12;9.10;;;6.60;;
37945;SDS011;23769;52.478;13.448;2022-10-18T14:01:45;8.80;;;6.82;;
37945;SDS011;23769;52.478;13.448;2022-10-18T14:06:57;8.73;;;6.30;;
37945;SDS011;23769;52.478;13.448;2022-10-18T14:09:25;9.23;;;7.40;;
37945;SDS011;23769;52.478;13.448;2022-10-18T14:11:52;9.98;;;7.45;;
37945;SDS011;23769;52.478;13.448;2022-10-18T14:14:23;12.80;;;9.38;;
37945;SDS011;23769;52.478;13.448;2022-10-18T14:16:55;9.82;;;7.53;;
37945;SDS011;23769;52.478;13.448;2022-10-18T14:19:26;12.93;;;10.88;;
37945;SDS011;23769;52.478;13.448;2022-10-18T14:21:56;13.43;;;8.68;;
37945;SDS011;23769;52.478;13.448;2022-10-18T14:24:25;9.02;;;6.47;;
37945;SDS011;23769;52.478;13.448;2022-10-18T14:27:11;7.60;;;6.30;;
37945;SDS011;23769;52.478;13.448;2022-10-18T14:29:40;20.42;;;15.63;;
37945;SDS011;23769;52.478;13.448;2022-10-18T14:32:08;16.73;;;10.25;;
37945;SDS011;23769;52.478;13.448;2022-10-18T14:34:35;11.45;;;9.20;;
37945;SDS011;23769;52.478;13.448;2022-10-18T14:37:05;10.15;;;8.60;;
37945;SDS011;23769;52.478;13.448;2022-10-18T14:39:32;11.50;;;7.05;;
37945;SDS011;23769;52.478;13.448;2022-10-18T14:41:59;10.07;;;7.85;;
37945;SDS011;23769;52.478;13.448;2022-10-18T14:44:28;10.43;;;8.65;;
37945;SDS011;23769;52.478;13.448;2022-10-18T14:47:00;11.07;;;8.35;;
37945;SDS011;23769;52.478;13.448;2022-10-18T14:49:29;11.82;;;9.07;;